Time;durP1;ratioP1;P1;durP2;ratioP2;P2;SDS_P1;SDS_P2;PMS_P1;PMS_P2;Temp;Humidity;BMP_temperature;BMP_pressure;BME280_temperature;BME280_humidity;BME280_pressure;Samples;Min_cycle;Max_cycle;Signal;HPM_P1;HPM_P2
2022/04/21 00:02:16;;;;;;;;;;;;;;;9.07;68.29;96653.38;6377232;27;20092;-64
2022/04/21 00:05:19;;;;;;;;;;;;;;;9.07;68.59;96661.25;6376886;27;19924;-64
2022/04/21 00:08:23;;;;;;;;;;;;;;;9.03;68.77;96658.00;6376648;27;19923;-64
2022/04/21 00:11:24;;;;;;;;;;;;;;;8.98;68.51;96660.88;6376081;27;19968;-64
2022/04/21 00:14:25;;;;;;;;;;;;;;;8.97;68.63;96660.97;6375496;27;20338;-63
2022/04/21 00:17:26;;;;;;;;;;;;;;;9.02;69.09;96655.44;6376625;27;20304;-64
2022/04/21 00:20:30;;;;;;;;;;;;;;;8.94;68.72;96656.75;6376346;27;19932;-65
2022/04/21 00:23:31;;;;;;;;;;;;;;;8.92;68.77;96663.91;6376329;27;19924;-64
2022/04/21 00:26:32;;;;;;;;;;;;;;;8.90;69.05;96663.13;6375288;27;19944;-63
2022/04/21 00:29:35;;;;;;;;;;;;;;;8.97;68.66;96669.72;6376010;27;19927;-65
2022/04/21 00:32:37;;;;;;;;;;;;;;;9.05;68.33;96671.00;6376096;27;20367;-63
2022/04/21 00:35:41;;;;;;;;;;;;;;;9.11;68.21;96665.34;6376028;27;19927;-64
2022/04/21 00:38:44;;;;;;;;;;;;;;;9.26;67.88;96664.41;6375850;27;20017;-64
2022/04/21 00:41:45;;;;;;;;;;;;;;;9.34;67.86;96664.78;6375126;27;20308;-64
2022/04/21 00:44:52;;;;;;;;;;;;;;;9.44;67.49;96673.75;6375568;27;19923;-64
2022/04/21 00:47:56;;;;;;;;;;;;;;;9.48;67.18;96663.03;6374862;27;19923;-64
2022/04/21 00:51:00;;;;;;;;;;;;;;;9.54;66.79;96662.66;6375755;27;19923;-65
2022/04/21 00:54:01;;;;;;;;;;;;;;;9.59;66.69;96663.19;6375672;27;19924;-64
2022/04/21 00:57:04;;;;;;;;;;;;;;;9.59;66.49;96668.44;6374639;27;20404;-64
2022/04/21 01:00:08;;;;;;;;;;;;;;;9.61;66.26;96667.41;6375259;27;19924;-64
2022/04/21 01:03:14;;;;;;;;;;;;;;;9.62;66.26;96660.38;6374959;27;19934;-64
2022/04/21 01:06:18;;;;;;;;;;;;;;;9.64;65.75;96669.00;6374026;27;19976;-64
2022/04/21 01:09:21;;;;;;;;;;;;;;;9.66;65.99;96659.25;6357434;27;19924;-64
2022/04/21 01:12:23;;;;;;;;;;;;;;;9.64;65.95;96663.75;6374764;27;19916;-64
2022/04/21 01:15:24;;;;;;;;;;;;;;;9.67;65.68;96671.44;6374865;27;20396;-64
2022/04/21 01:18:28;;;;;;;;;;;;;;;9.69;65.60;96669.56;6375069;27;19923;-64
2022/04/21 01:21:29;;;;;;;;;;;;;;;9.66;65.64;96667.13;6374095;27;19930;-65
2022/04/21 01:24:33;;;;;;;;;;;;;;;9.70;65.45;96668.59;6357095;27;19923;-64
2022/04/21 01:27:35;;;;;;;;;;;;;;;9.69;65.33;96677.44;6375004;27;20415;-64
2022/04/21 01:30:36;;;;;;;;;;;;;;;9.67;65.38;96676.69;6374859;27;19931;-64
2022/04/21 01:33:40;;;;;;;;;;;;;;;9.61;65.25;96687.59;6374739;27;19964;-64
2022/04/21 01:43:25;;;;;;;;;;;;;;;9.71;64.71;96686.06;6355788;27;19923;-66
2022/04/21 01:46:26;;;;;;;;;;;;;;;9.74;64.60;96680.63;6373866;27;20307;-65
2022/04/21 01:49:28;;;;;;;;;;;;;;;9.70;64.50;96684.38;6373524;27;19923;-65
2022/04/21 01:52:31;;;;;;;;;;;;;;;9.73;64.42;96684.16;6374202;27;20025;-64
2022/04/21 01:55:33;;;;;;;;;;;;;;;9.79;63.97;96689.03;6374170;27;20020;-65
2022/04/21 01:58:34;;;;;;;;;;;;;;;9.83;63.98;96685.28;6373754;27;19923;-64
2022/04/21 02:01:35;;;;;;;;;;;;;;;9.90;63.69;96681.28;6374132;27;19927;-64
2022/04/21 02:04:38;;;;;;;;;;;;;;;9.97;63.54;96686.16;6373993;27;19923;-65
2022/04/21 02:07:44;;;;;;;;;;;;;;;10.02;63.48;96690.19;6373789;27;20271;-65
2022/04/21 02:10:45;;;;;;;;;;;;;;;10.11;63.08;96694.00;6373048;27;20388;-64
2022/04/21 02:13:46;;;;;;;;;;;;;;;10.17;63.37;96704.09;6373289;27;19933;-64
2022/04/21 02:16:47;;;;;;;;;;;;;;;10.11;63.03;96700.09;6372720;27;20381;-64
2022/04/21 02:19:50;;;;;;;;;;;;;;;10.17;63.02;96695.38;6373041;27;19923;-65
2022/04/21 02:22:54;;;;;;;;;;;;;;;10.24;62.81;96689.59;6373627;27;20388;-64
2022/04/21 02:25:55;;;;;;;;;;;;;;;10.32;62.35;96684.69;6372234;27;20455;-65
2022/04/21 02:28:58;;;;;;;;;;;;;;;10.42;62.13;96697.25;6373193;27;20407;-65
2022/04/21 02:32:01;;;;;;;;;;;;;;;10.55;61.97;96698.09;6373003;27;19919;-65
2022/04/21 02:35:05;;;;;;;;;;;;;;;10.53;61.49;96695.59;6372690;27;20185;-64
2022/04/21 02:38:06;;;;;;;;;;;;;;;10.56;61.44;96700.63;6372008;27;19919;-65
2022/04/21 02:41:09;;;;;;;;;;;;;;;10.67;61.30;96707.81;6372245;27;20063;-64
2022/04/21 02:44:13;;;;;;;;;;;;;;;10.78;60.90;96710.56;6372656;27;19923;-64
2022/04/21 02:47:14;;;;;;;;;;;;;;;10.89;60.85;96714.22;6371594;27;19923;-65
2022/04/21 02:50:18;;;;;;;;;;;;;;;10.87;60.67;96718.75;6372776;27;19927;-65
2022/04/21 03:00:08;;;;;;;;;;;;;;;11.13;59.53;96727.50;6372524;27;20392;-65
2022/04/21 03:03:09;;;;;;;;;;;;;;;11.35;59.14;96735.59;6371388;27;20018;-65
2022/04/21 03:06:13;;;;;;;;;;;;;;;11.49;58.71;96731.13;6371192;27;19930;-64
2022/04/21 03:09:14;;;;;;;;;;;;;;;11.57;58.33;96740.16;6371469;27;19923;-64
2022/04/21 03:12:15;;;;;;;;;;;;;;;11.79;57.66;96743.91;6371067;27;20400;-65
2022/04/21 03:15:19;;;;;;;;;;;;;;;12.06;56.19;96741.97;6372232;27;19923;-64
2022/04/21 03:18:22;;;;;;;;;;;;;;;12.13;55.46;96751.09;6371153;27;19923;-64
2022/04/21 03:24:46;;;;;;;;;;;;;;;12.61;54.77;96757.31;6352349;27;19927;-64
2022/04/21 03:27:50;;;;;;;;;;;;;;;12.86;53.62;96757.13;6371433;27;19924;-66
2022/04/21 03:30:51;;;;;;;;;;;;;;;12.89;53.58;96759.53;6370869;27;19923;-64
2022/04/21 03:33:55;;;;;;;;;;;;;;;12.94;53.44;96752.13;6371820;27;19923;-64
2022/04/21 03:36:56;;;;;;;;;;;;;;;12.74;52.73;96748.34;6371643;27;19923;-63
2022/04/21 03:39:58;;;;;;;;;;;;;;;12.51;52.65;96758.00;6370888;27;20019;-64
2022/04/21 03:43:01;;;;;;;;;;;;;;;12.37;52.97;96750.25;6371312;27;19923;-65
2022/04/21 03:46:05;;;;;;;;;;;;;;;12.38;52.86;96754.56;6371806;27;19923;-65
2022/04/21 03:49:06;;;;;;;;;;;;;;;12.39;51.90;96763.31;6352933;28;19930;-64
2022/04/21 03:52:12;;;;;;;;;;;;;;;12.19;51.59;96759.50;6371533;28;19923;-65
2022/04/21 03:55:16;;;;;;;;;;;;;;;12.13;51.45;96758.16;6371481;28;19959;-65
2022/04/21 03:58:19;;;;;;;;;;;;;;;12.16;51.43;96765.00;6370342;28;20327;-64
2022/04/21 04:01:25;;;;;;;;;;;;;;;12.35;50.79;96768.00;6371564;28;20396;-65
2022/04/21 04:04:31;;;;;;;;;;;;;;;12.35;50.17;96754.81;6371008;28;20474;-64
2022/04/21 04:10:52;;;;;;;;;;;;;;;12.56;49.09;96776.94;6370623;28;19995;-65
2022/04/21 04:13:53;;;;;;;;;;;;;;;12.65;48.49;96764.03;6370404;28;20387;-65
2022/04/21 04:16:57;;;;;;;;;;;;;;;12.66;48.42;96760.44;6370618;28;19923;-69
2022/04/21 04:20:02;;;;;;;;;;;;;;;12.85;48.40;96768.66;6371288;28;19930;-69
2022/04/21 04:23:05;;;;;;;;;;;;;;;13.13;48.02;96769.19;6370489;28;19927;-69
2022/04/21 04:26:06;;;;;;;;;;;;;;;13.22;47.63;96779.91;6370353;28;19923;-69
2022/04/21 04:29:07;;;;;;;;;;;;;;;13.32;47.13;96780.06;6352258;28;19949;-69
2022/04/21 04:32:08;;;;;;;;;;;;;;;13.68;46.41;96780.78;6370082;28;20066;-69
2022/04/21 04:35:10;;;;;;;;;;;;;;;14.12;45.23;96769.28;6370540;28;19923;-69
2022/04/21 04:38:14;;;;;;;;;;;;;;;14.43;44.63;96774.72;6370152;28;20457;-69
2022/04/21 04:44:35;;;;;;;;;;;;;;;14.94;42.99;96775.88;6375373;27;19923;-69
2022/04/21 04:47:37;;;;;;;;;;;;;;;15.07;41.90;96771.22;6375073;27;19923;-69
2022/04/21 04:50:38;;;;;;;;;;;;;;;15.03;42.10;96769.78;6374882;27;20464;-69
2022/04/21 04:53:39;;;;;;;;;;;;;;;15.16;41.54;96775.75;6357298;27;19924;-71
2022/04/21 04:56:41;;;;;;;;;;;;;;;15.25;41.02;96764.34;6374962;27;19923;-71
2022/04/21 04:59:45;;;;;;;;;;;;;;;15.74;40.33;96764.63;6374781;27;19923;-71
2022/04/21 05:02:46;;;;;;;;;;;;;;;16.40;39.22;96769.38;6374548;27;20323;-71
2022/04/21 05:05:49;;;;;;;;;;;;;;;16.94;36.93;96777.81;6374649;27;20023;-71
2022/04/21 05:08:51;;;;;;;;;;;;;;;17.37;35.62;96771.97;6374150;27;20291;-71
2022/04/21 05:11:53;;;;;;;;;;;;;;;17.53;34.91;96778.53;6375106;27;19923;-71
2022/04/21 05:14:54;;;;;;;;;;;;;;;18.80;33.62;96780.38;6374443;27;20303;-71
2022/04/21 05:17:56;;;;;;;;;;;;;;;20.60;32.13;96778.72;6374011;27;20007;-71
2022/04/21 05:20:57;;;;;;;;;;;;;;;23.78;29.18;96782.13;6374186;27;20006;-71
2022/04/21 05:24:01;;;;;;;;;;;;;;;24.95;28.09;96796.41;6374224;27;20296;-72
2022/04/21 05:27:03;;;;;;;;;;;;;;;26.76;26.59;96797.47;6374799;27;19987;-72
2022/04/21 05:33:28;;;;;;;;;;;;;;;30.13;20.93;96802.97;6373645;27;20508;-71
2022/04/21 05:36:29;;;;;;;;;;;;;;;31.69;18.09;96804.03;6373588;27;19927;-71
2022/04/21 05:39:30;;;;;;;;;;;;;;;32.60;16.94;96796.28;6373821;27;19923;-71
2022/04/21 05:42:34;;;;;;;;;;;;;;;31.79;16.88;96794.44;6373617;27;19923;-71
2022/04/21 05:45:36;;;;;;;;;;;;;;;32.29;16.27;96785.81;6374570;27;20119;-70
2022/04/21 05:48:38;;;;;;;;;;;;;;;32.09;16.43;96781.56;6373836;27;19931;-71
2022/04/21 05:51:39;;;;;;;;;;;;;;;29.45;19.17;96782.94;6372828;27;19931;-70
2022/04/21 05:54:40;;;;;;;;;;;;;;;28.79;18.67;96788.75;6373410;27;19931;-64
2022/04/21 05:57:44;;;;;;;;;;;;;;;30.27;17.92;96796.38;6374451;27;20343;-64
2022/04/21 06:00:45;;;;;;;;;;;;;;;33.14;15.72;96806.06;6373150;27;19924;-65
2022/04/21 06:03:46;;;;;;;;;;;;;;;35.35;12.41;96808.97;6373898;27;19951;-65
2022/04/21 06:06:47;;;;;;;;;;;;;;;36.34;11.87;96812.22;6373192;27;19930;-66
2022/04/21 06:09:48;;;;;;;;;;;;;;;34.59;12.58;96798.84;6372929;27;20300;-65
2022/04/21 06:12:53;;;;;;;;;;;;;;;32.64;13.87;96788.47;6373824;27;20432;-66
2022/04/21 06:15:59;;;;;;;;;;;;;;;29.99;15.67;96789.53;6373291;27;19919;-65
2022/04/21 06:19:00;;;;;;;;;;;;;;;26.83;17.77;96774.00;6372216;27;19929;-65
2022/04/21 06:22:03;;;;;;;;;;;;;;;27.05;16.85;96782.78;6372512;27;20394;-65
2022/04/21 06:25:05;;;;;;;;;;;;;;;28.72;16.33;96787.97;6337918;27;20181;-65
2022/04/21 06:28:09;;;;;;;;;;;;;;;31.77;13.83;96776.47;6373197;27;20396;-66
2022/04/21 06:31:13;;;;;;;;;;;;;;;31.03;13.51;96767.00;6373152;27;19952;-65
2022/04/21 06:34:16;;;;;;;;;;;;;;;29.51;15.50;96765.78;6372229;27;19930;-65
2022/04/21 06:37:17;;;;;;;;;;;;;;;27.96;16.49;96762.41;6372105;27;19923;-65
2022/04/21 06:40:18;;;;;;;;;;;;;;;26.22;17.38;96748.91;6371951;27;20018;-64
2022/04/21 06:50:05;;;;;;;;;;;;;;;24.56;18.40;96748.41;6372087;27;19927;-65
2022/04/21 06:53:09;;;;;;;;;;;;;;;26.99;16.11;96751.19;6372449;27;20022;-65
2022/04/21 06:56:13;;;;;;;;;;;;;;;27.26;16.16;96746.69;6372347;27;20308;-65
2022/04/21 06:59:17;;;;;;;;;;;;;;;28.55;15.72;96761.41;6371617;27;19931;-65
2022/04/21 07:02:27;;;;;;;;;;;;;;;32.58;14.04;96768.50;6371761;27;19931;-65
2022/04/21 07:05:32;;;;;;;;;;;;;;;34.05;13.40;96765.03;6371953;27;20006;-66
2022/04/21 07:08:36;;;;;;;;;;;;;;;34.19;12.95;96753.47;6372269;27;19923;-64
2022/04/21 07:11:40;;;;;;;;;;;;;;;34.34;12.80;96752.88;6372245;27;20385;-65
2022/04/21 07:14:43;;;;;;;;;;;;;;;33.97;14.12;96750.72;6371217;27;19923;-65
2022/04/21 07:17:44;;;;;;;;;;;;;;;33.36;13.62;96747.03;6371738;27;20310;-65
2022/04/21 07:20:47;;;;;;;;;;;;;;;31.94;14.47;96737.72;6371762;27;19923;-64
2022/04/21 07:23:50;;;;;;;;;;;;;;;31.70;14.54;96726.78;6371961;27;19923;-65
2022/04/21 07:26:52;;;;;;;;;;;;;;;34.01;11.95;96736.56;6371054;27;19924;-65
2022/04/21 07:29:54;;;;;;;;;;;;;;;34.07;13.52;96735.59;6371146;27;19930;-65
2022/04/21 07:33:02;;;;;;;;;;;;;;;33.61;14.00;96729.44;6371613;27;19923;-65
2022/04/21 07:36:03;;;;;;;;;;;;;;;34.33;13.16;96736.72;6370915;27;20404;-65
2022/04/21 07:39:07;;;;;;;;;;;;;;;36.87;12.45;96733.50;6371665;27;19924;-65
2022/04/21 07:42:08;;;;;;;;;;;;;;;36.45;12.13;96733.63;6353213;27;19927;-65
2022/04/21 07:45:10;;;;;;;;;;;;;;;33.77;12.16;96725.84;6370582;27;20411;-65
2022/04/21 07:48:13;;;;;;;;;;;;;;;32.88;12.77;96713.72;6371455;27;19924;-64
2022/04/21 07:51:18;;;;;;;;;;;;;;;32.26;12.00;96712.78;6371344;27;19927;-65
2022/04/21 07:54:21;;;;;;;;;;;;;;;31.50;11.88;96707.28;6371272;28;20403;-64
2022/04/21 07:57:24;;;;;;;;;;;;;;;31.17;11.90;96710.53;6371520;28;20333;-65
2022/04/21 08:00:28;;;;;;;;;;;;;;;32.20;11.29;96717.28;6370329;28;20285;-65
2022/04/21 08:03:37;;;;;;;;;;;;;;;32.34;11.11;96709.69;6353444;28;19920;-64
2022/04/21 08:06:38;;;;;;;;;;;;;;;32.11;11.62;96716.84;6352615;28;19976;-65
2022/04/21 08:09:39;;;;;;;;;;;;;;;31.72;12.25;96716.50;6352982;28;19962;-65
2022/04/21 08:12:41;;;;;;;;;;;;;;;31.31;12.11;96703.84;6370712;28;19924;-65
2022/04/21 08:15:42;;;;;;;;;;;;;;;29.20;13.23;96708.91;6371649;27;20022;-66
2022/04/21 08:18:43;;;;;;;;;;;;;;;27.95;14.09;96690.44;6375230;27;20046;-65
2022/04/21 08:21:44;;;;;;;;;;;;;;;28.09;14.25;96691.25;6374741;27;19923;-65
2022/04/21 08:34:43;;;;;;;;;;;;;;;31.01;11.62;96695.75;6357416;27;19923;-64
2022/04/21 08:37:45;;;;;;;;;;;;;;;30.14;12.04;96690.66;6375976;27;20043;-65
2022/04/21 08:40:57;;;;;;;;;;;;;;;29.40;12.47;96678.94;6357179;27;20285;-65
2022/04/21 08:44:03;;;;;;;;;;;;;;;28.30;13.25;96680.09;6375665;27;19993;-65
2022/04/21 08:47:09;;;;;;;;;;;;;;;29.70;12.58;96684.50;6375478;27;19959;-65
2022/04/21 08:50:14;;;;;;;;;;;;;;;31.96;11.86;96706.47;6375399;27;19930;-64
2022/04/21 08:53:19;;;;;;;;;;;;;;;32.41;10.91;96696.75;6375486;27;20014;-65
2022/04/21 08:56:22;;;;;;;;;;;;;;;31.06;11.55;96696.72;6375407;27;19930;-64
2022/04/21 08:59:25;;;;;;;;;;;;;;;31.52;11.86;96705.16;6375503;27;20349;-65
2022/04/21 09:02:35;;;;;;;;;;;;;;;31.74;11.73;96695.34;6375426;27;19929;-65
2022/04/21 09:05:38;;;;;;;;;;;;;;;31.83;11.55;96694.97;6375186;27;19923;-65
2022/04/21 09:08:42;;;;;;;;;;;;;;;31.36;11.44;96701.25;6375166;27;19924;-65
2022/04/21 09:11:44;;;;;;;;;;;;;;;32.65;11.52;96698.34;6374812;27;19931;-66
2022/04/21 09:14:47;;;;;;;;;;;;;;;35.16;10.35;96704.59;6374397;27;19923;-65
2022/04/21 09:17:51;;;;;;;;;;;;;;;37.66;9.19;96703.94;6374575;27;19919;-65
2022/04/21 09:21:04;;;;;;;;;;;;;;;38.91;7.94;96715.88;6374696;27;19924;-65
2022/04/21 09:24:21;;;;;;;;;;;;;;;37.78;8.30;96715.44;6374672;27;19925;-65
2022/04/21 09:27:41;;;;;;;;;;;;;;;36.96;8.73;96704.44;6374390;27;19923;-65
2022/04/21 09:30:45;;;;;;;;;;;;;;;35.17;9.11;96706.25;6374565;27;19924;-66
2022/04/21 09:33:49;;;;;;;;;;;;;;;33.21;10.51;96705.88;6374531;27;19923;-65
2022/04/21 09:36:59;;;;;;;;;;;;;;;32.92;10.97;96697.72;6373647;27;19923;-64
2022/04/21 09:40:03;;;;;;;;;;;;;;;33.69;10.35;96694.38;6374259;27;20388;-65
2022/04/21 09:43:09;;;;;;;;;;;;;;;34.96;9.78;96698.91;6374424;27;19995;-65
2022/04/21 09:46:17;;;;;;;;;;;;;;;35.74;9.33;96697.38;6374134;27;20000;-65
2022/04/21 09:49:37;;;;;;;;;;;;;;;37.01;9.11;96706.41;6373919;27;19991;-65
2022/04/21 09:52:38;;;;;;;;;;;;;;;36.88;8.69;96707.72;6373152;27;20273;-65
2022/04/21 09:55:44;;;;;;;;;;;;;;;36.52;8.33;96704.88;6374071;27;19923;-66
2022/04/21 09:58:46;;;;;;;;;;;;;;;36.72;8.62;96697.81;6373764;27;19923;-66
2022/04/21 10:01:50;;;;;;;;;;;;;;;35.91;8.63;96693.63;6373072;27;19923;-65
2022/04/21 10:04:51;;;;;;;;;;;;;;;34.88;9.30;96689.28;6373490;27;19923;-65
2022/04/21 10:07:53;;;;;;;;;;;;;;;34.51;9.58;96687.25;6372450;27;20407;-65
2022/04/21 10:10:54;;;;;;;;;;;;;;;34.10;10.14;96688.66;6373332;27;20101;-65
2022/04/21 10:13:56;;;;;;;;;;;;;;;34.73;9.61;96695.41;6373443;27;19930;-65
2022/04/21 10:16:57;;;;;;;;;;;;;;;34.65;9.60;96687.66;6373187;27;19953;-65
2022/04/21 10:20:00;;;;;;;;;;;;;;;35.36;9.42;96692.16;6373317;27;20396;-64
2022/04/21 10:23:02;;;;;;;;;;;;;;;36.34;9.15;96687.00;6372477;27;20060;-65
2022/04/21 10:26:06;;;;;;;;;;;;;;;35.89;8.84;96691.16;6373192;27;19950;-66
2022/04/21 10:29:23;;;;;;;;;;;;;;;35.28;9.45;96691.56;6373233;27;19924;-65
2022/04/21 10:32:45;;;;;;;;;;;;;;;35.83;9.40;96692.22;6373016;27;19928;-65
2022/04/21 10:35:48;;;;;;;;;;;;;;;36.49;9.32;96702.69;6373138;27;19923;-66
2022/04/21 10:39:08;;;;;;;;;;;;;;;35.88;8.96;96688.69;6371353;27;19931;-65
2022/04/21 10:42:16;;;;;;;;;;;;;;;35.61;9.13;96684.16;6371324;27;19930;-66
2022/04/21 10:45:33;;;;;;;;;;;;;;;35.41;9.17;96694.94;6372911;27;19931;-65
2022/04/21 10:48:42;;;;;;;;;;;;;;;33.99;9.84;96691.22;6372852;27;19927;-64
2022/04/21 10:57:12;;;;;;;;;;;;;;;32.94;10.15;96684.66;6353601;27;20067;-66
2022/04/21 10:58:33;;;;;;;;;;;;;;;33.45;10.13;96676.50;6371847;27;19965;-65
2022/04/21 11:01:35;;;;;;;;;;;;;;;33.73;9.52;96681.88;6372101;27;19923;-65
2022/04/21 11:04:38;;;;;;;;;;;;;;;32.44;9.96;96679.91;6372412;27;19923;-66
2022/04/21 11:07:52;;;;;;;;;;;;;;;29.94;10.70;96680.88;6371434;27;19927;-65
2022/04/21 11:10:56;;;;;;;;;;;;;;;28.56;11.27;96662.91;6371674;27;19934;-66
2022/04/21 11:14:04;;;;;;;;;;;;;;;27.97;11.99;96667.56;6371609;27;19923;-65
2022/04/21 11:17:10;;;;;;;;;;;;;;;27.83;11.74;96665.97;6371365;27;20006;-65
2022/04/21 11:20:24;;;;;;;;;;;;;;;27.18;12.59;96667.75;6371021;27;20068;-65
2022/04/21 11:23:29;;;;;;;;;;;;;;;26.76;12.55;96662.50;6371247;27;20389;-64
2022/04/21 11:26:33;;;;;;;;;;;;;;;26.37;13.39;96661.38;6371298;27;19924;-65
2022/04/21 11:29:35;;;;;;;;;;;;;;;26.94;12.99;96661.06;6370644;27;19923;-65
2022/04/21 11:32:39;;;;;;;;;;;;;;;27.39;12.41;96663.97;6371636;27;19923;-66
2022/04/21 11:35:43;;;;;;;;;;;;;;;26.88;12.54;96663.53;6371106;27;19930;-64
2022/04/21 11:38:45;;;;;;;;;;;;;;;26.57;12.79;96668.72;6371370;27;19924;-66
2022/04/21 11:41:49;;;;;;;;;;;;;;;26.52;12.87;96673.88;6370817;27;19923;-66
2022/04/21 11:44:50;;;;;;;;;;;;;;;25.79;13.68;96685.22;6370473;27;20256;-65
2022/04/21 11:47:53;;;;;;;;;;;;;;;24.50;14.09;96685.44;6371425;27;19923;-66
2022/04/21 11:50:54;;;;;;;;;;;;;;;23.05;15.47;96679.81;6369572;27;20022;-66
2022/04/21 11:54:02;;;;;;;;;;;;;;;21.85;16.35;96680.22;6371216;28;20064;-65
2022/04/21 11:57:06;;;;;;;;;;;;;;;20.94;16.73;96684.16;6370338;28;19946;-65
2022/04/21 12:00:08;;;;;;;;;;;;;;;20.73;16.95;96675.81;6369965;28;20014;-65
2022/04/21 12:06:37;;;;;;;;;;;;;;;20.32;17.52;96689.13;6370088;28;20043;-65
2022/04/21 12:09:41;;;;;;;;;;;;;;;20.18;17.49;96685.25;6370836;28;20014;-65
2022/04/21 12:12:44;;;;;;;;;;;;;;;19.78;18.30;96685.97;6370794;28;20352;-65
2022/04/21 12:15:47;;;;;;;;;;;;;;;19.39;18.35;96691.78;6371093;28;19938;-65
2022/04/21 12:18:51;;;;;;;;;;;;;;;19.23;18.52;96688.03;6351868;28;19924;-65
2022/04/21 12:21:55;;;;;;;;;;;;;;;18.99;18.63;96682.53;6370829;28;20304;-65
2022/04/21 12:24:56;;;;;;;;;;;;;;;18.80;18.75;96687.09;6369589;28;19949;-66
2022/04/21 12:28:01;;;;;;;;;;;;;;;18.92;18.85;96689.50;6370320;28;20389;-65
2022/04/21 12:31:07;;;;;;;;;;;;;;;18.83;18.74;96689.44;6370189;28;20312;-65
2022/04/21 12:34:11;;;;;;;;;;;;;;;18.86;18.92;96695.47;6352398;28;19923;-64
2022/04/21 12:37:12;;;;;;;;;;;;;;;18.94;18.69;96690.16;6369587;28;19930;-65
2022/04/21 12:40:14;;;;;;;;;;;;;;;19.06;18.53;96691.59;6369720;28;19929;-65
2022/04/21 12:43:16;;;;;;;;;;;;;;;19.24;18.74;96699.53;6369887;28;20287;-65
2022/04/21 12:46:26;;;;;;;;;;;;;;;19.37;18.67;96683.13;6370404;28;20016;-65
2022/04/21 12:49:46;;;;;;;;;;;;;;;19.58;18.70;96698.72;6368972;28;20013;-65
2022/04/21 12:52:52;;;;;;;;;;;;;;;19.45;18.94;96701.84;6350877;28;19929;-65
2022/04/21 12:55:53;;;;;;;;;;;;;;;19.03;19.18;96702.59;6368960;28;19949;-64
2022/04/21 12:58:58;;;;;;;;;;;;;;;18.68;19.76;96698.09;6369719;28;19923;-65
2022/04/21 13:01:59;;;;;;;;;;;;;;;18.37;19.84;96707.34;6371207;27;19923;-65
2022/04/21 13:05:07;;;;;;;;;;;;;;;18.07;20.27;96699.72;6374914;27;20303;-65
2022/04/21 13:08:08;;;;;;;;;;;;;;;17.92;20.64;96694.91;6374503;27;20316;-64
2022/04/21 13:11:11;;;;;;;;;;;;;;;17.85;20.73;96701.78;6374567;27;20387;-65
2022/04/21 13:14:14;;;;;;;;;;;;;;;17.86;20.86;96703.50;6374629;27;20022;-64
2022/04/21 13:17:20;;;;;;;;;;;;;;;17.67;20.90;96699.06;6356714;27;19923;-64
2022/04/21 13:23:45;;;;;;;;;;;;;;;17.50;22.07;96702.50;6373943;27;19923;-65
2022/04/21 13:26:47;;;;;;;;;;;;;;;17.24;22.29;96699.69;6374217;27;19927;-65
2022/04/21 13:29:48;;;;;;;;;;;;;;;17.21;22.70;96702.59;6373446;27;19924;-65
2022/04/21 13:36:16;;;;;;;;;;;;;;;16.84;23.40;96706.03;6374378;27;19924;-65
2022/04/21 13:39:18;;;;;;;;;;;;;;;16.61;23.58;96706.31;6373480;27;20310;-66
2022/04/21 13:42:21;;;;;;;;;;;;;;;16.52;23.97;96712.50;6374034;27;19927;-66
2022/04/21 13:45:25;;;;;;;;;;;;;;;16.31;24.03;96706.50;6374381;27;19946;-65
2022/04/21 13:48:26;;;;;;;;;;;;;;;16.34;24.66;96714.19;6373423;27;20010;-65
2022/04/21 13:51:28;;;;;;;;;;;;;;;16.09;24.96;96715.53;6373218;27;19963;-65
2022/04/21 13:54:29;;;;;;;;;;;;;;;15.90;24.88;96722.47;6373219;27;20406;-65
2022/04/21 13:57:32;;;;;;;;;;;;;;;15.76;24.96;96725.50;6374001;27;19923;-66
2022/04/21 14:00:40;;;;;;;;;;;;;;;15.71;24.98;96722.44;6373385;27;20414;-66
2022/04/21 14:03:47;;;;;;;;;;;;;;;15.51;25.16;96726.78;6373299;27;19930;-66
2022/04/21 14:06:55;;;;;;;;;;;;;;;15.40;25.23;96732.19;6372724;27;19924;-65
2022/04/21 14:09:56;;;;;;;;;;;;;;;15.26;25.33;96728.94;6373009;27;20368;-65
2022/04/21 14:13:03;;;;;;;;;;;;;;;15.20;25.46;96736.56;6372263;27;19923;-65
2022/04/21 14:16:05;;;;;;;;;;;;;;;15.01;25.71;96747.91;6372629;27;19923;-65
2022/04/21 14:19:11;;;;;;;;;;;;;;;14.92;26.16;96746.88;6372989;27;20300;-65
2022/04/21 14:22:15;;;;;;;;;;;;;;;14.85;26.35;96745.69;6354067;27;19989;-65
2022/04/21 14:25:19;;;;;;;;;;;;;;;14.57;26.45;96757.75;6373099;27;19923;-65
2022/04/21 14:28:20;;;;;;;;;;;;;;;14.55;26.82;96749.09;6373063;27;19968;-66
2022/04/21 14:31:24;;;;;;;;;;;;;;;14.40;27.18;96760.91;6372927;27;20439;-66
2022/04/21 14:34:25;;;;;;;;;;;;;;;14.51;27.10;96759.06;6354308;27;20308;-65
2022/04/21 14:44:15;;;;;;;;;;;;;;;13.86;28.00;96773.19;6372784;27;19929;-65
2022/04/21 14:47:18;;;;;;;;;;;;;;;13.83;27.75;96774.28;6354648;27;19923;-65
2022/04/21 14:50:22;;;;;;;;;;;;;;;13.69;27.96;96788.59;6354507;27;20291;-66
2022/04/21 14:53:23;;;;;;;;;;;;;;;13.51;28.02;96787.41;6372562;27;19993;-66
2022/04/21 14:56:24;;;;;;;;;;;;;;;13.25;28.06;96795.53;6372392;27;20403;-66
2022/04/21 14:59:26;;;;;;;;;;;;;;;13.13;28.02;96795.59;6372462;27;19975;-66
2022/04/21 15:02:30;;;;;;;;;;;;;;;13.07;28.15;96801.34;6370671;27;19927;-65
2022/04/21 15:05:34;;;;;;;;;;;;;;;13.00;28.21;96791.25;6372306;27;20392;-65
2022/04/21 15:08:35;;;;;;;;;;;;;;;12.98;28.44;96798.44;6371317;27;19924;-66
2022/04/21 15:11:41;;;;;;;;;;;;;;;13.01;28.78;96808.78;6372068;27;20389;-65
2022/04/21 15:14:42;;;;;;;;;;;;;;;12.83;28.63;96810.19;6371416;27;19929;-65
2022/04/21 15:17:45;;;;;;;;;;;;;;;12.73;28.83;96817.09;6370835;27;20388;-65
2022/04/21 15:20:48;;;;;;;;;;;;;;;12.63;28.80;96818.75;6371493;27;19931;-64
2022/04/21 15:23:49;;;;;;;;;;;;;;;12.57;29.03;96820.88;6371899;27;19923;-66
2022/04/21 15:26:50;;;;;;;;;;;;;;;12.67;29.15;96830.75;6371322;27;19923;-65
2022/04/21 15:29:51;;;;;;;;;;;;;;;12.70;29.25;96827.88;6371822;27;20417;-65
2022/04/21 15:32:57;;;;;;;;;;;;;;;12.50;29.14;96840.75;6371835;27;19931;-66
2022/04/21 15:36:00;;;;;;;;;;;;;;;12.38;29.35;96846.94;6371747;27;20357;-64
2022/04/21 15:39:02;;;;;;;;;;;;;;;12.11;29.39;96855.84;6370804;27;19924;-65
2022/04/21 15:42:05;;;;;;;;;;;;;;;12.07;30.01;96870.22;6371405;27;19923;-67
2022/04/21 15:45:09;;;;;;;;;;;;;;;11.88;30.66;96885.66;6371543;27;19946;-64
2022/04/21 15:48:10;;;;;;;;;;;;;;;11.75;31.68;96890.06;6371268;27;20399;-65
2022/04/21 15:51:14;;;;;;;;;;;;;;;11.44;31.94;96902.72;6353686;27;19930;-65
2022/04/21 16:00:56;;;;;;;;;;;;;;;10.87;33.40;96921.41;6371448;28;19924;-66
2022/04/21 16:04:01;;;;;;;;;;;;;;;10.71;33.47;96930.31;6371324;28;19923;-66
2022/04/21 16:07:07;;;;;;;;;;;;;;;10.48;33.56;96938.84;6371169;28;19923;-66
2022/04/21 16:10:08;;;;;;;;;;;;;;;10.36;33.88;96940.47;6370503;28;19930;-64
2022/04/21 16:13:12;;;;;;;;;;;;;;;10.29;34.04;96942.63;6371419;28;19923;-63
2022/04/21 16:16:14;;;;;;;;;;;;;;;10.25;34.19;96943.75;6371630;28;19923;-65
2022/04/21 16:19:15;;;;;;;;;;;;;;;10.13;34.21;96949.75;6371763;28;20403;-65
2022/04/21 16:22:18;;;;;;;;;;;;;;;10.05;34.23;96952.03;6370221;28;19923;-65
2022/04/21 16:25:19;;;;;;;;;;;;;;;10.00;34.36;96959.34;6370058;28;19960;-64
2022/04/21 16:28:20;;;;;;;;;;;;;;;9.80;34.38;96953.50;6370981;28;19930;-65
2022/04/21 16:31:24;;;;;;;;;;;;;;;9.66;34.68;96962.22;6370329;28;19930;-64
2022/04/21 16:34:26;;;;;;;;;;;;;;;9.58;34.78;96971.50;6352705;28;19924;-66
2022/04/21 16:37:27;;;;;;;;;;;;;;;9.58;35.08;96974.13;6373483;27;19930;-65
2022/04/21 16:40:28;;;;;;;;;;;;;;;9.63;34.79;96977.34;6356762;27;20026;-65
2022/04/21 16:43:35;;;;;;;;;;;;;;;9.65;34.79;96980.69;6375719;27;19924;-65
2022/04/21 16:46:38;;;;;;;;;;;;;;;9.47;34.95;96987.88;6375960;27;19923;-65
2022/04/21 16:49:40;;;;;;;;;;;;;;;9.37;34.97;96991.97;6375262;27;19963;-66
2022/04/21 16:52:44;;;;;;;;;;;;;;;9.43;35.07;96992.47;6375679;27;20300;-66
2022/04/21 16:55:46;;;;;;;;;;;;;;;9.27;35.11;97002.16;6374909;27;19924;-66
2022/04/21 16:58:47;;;;;;;;;;;;;;;9.12;35.03;97008.31;6374698;27;20012;-66
2022/04/21 17:05:11;;;;;;;;;;;;;;;8.93;35.22;97004.09;6375310;27;19964;-65
2022/04/21 17:08:15;;;;;;;;;;;;;;;8.94;35.25;97011.03;6374166;27;19930;-65
2022/04/21 17:11:16;;;;;;;;;;;;;;;8.71;35.30;97008.84;6374597;27;19931;-66
2022/04/21 17:14:22;;;;;;;;;;;;;;;8.70;35.33;97007.16;6375059;27;19919;-66